Nearby METAR Reports

 

KLBE - Latrobe/Westmorl, Pennsylvania, USA
Distance from station: SE 16mi, 26km
Updated: Sat, 13-Feb-2016 10:15pm EST
Light snow, Overcast
Light snow, Overcast
 Wind from calm
Wind: Calm
Temperature: 5°F , -15°C
Dew Point: 1°F , -17°C
Humidity: 85%
Barometer: 30.42 inHg , 1030.1 hPa
Summary: Light Snow
Clouds: Overcast
Visibility: 6 miles , 10 km
Cloud details: Few Clouds 1600 ft
Mostly cloudy 2100 ft
Overcast 4000 ft
2016/02/14 03:15 KLBE 140315Z AUTO 00000KT 6SM -SN FEW016 BKN021 OVC040 M15/M17 A3042 RMK AO2
KAGC - Pittsburgh/Alleg, Pennsylvania, USA
Distance from station: WSW 18mi, 30km
Updated: Sat, 13-Feb-2016 9:53pm EST
Clear
Clear
 Wind from W
Wind: W 6 mph , 9 km/h
Temperature: 7°F , -14°C
Wind Chill: -4°F , -20°C
Dew Point: -2°F , -19°C
Humidity: 66%
Barometer: 30.39 inHg , 1029.1 hPa
Clouds: Clear
Visibility: 10 miles , 16 km
2016/02/14 02:53 KAGC 140253Z 28005KT 10SM CLR M14/M19 A3039 RMK AO2 SLP324 T11391189 51004
 
KBTP - Butler Co., Pennsylvania, USA
Distance from station: NW 29mi, 47km
Updated: Sat, 13-Feb-2016 10:15pm EST
Clear
Clear
 Wind from calm
Wind: Calm
Temperature: 3°F , -16°C
Dew Point: -0°F , -18°C
Humidity: 85%
Barometer: 30.42 inHg , 1030.1 hPa
Clouds: Clear
Visibility: 7 miles , 11 km
2016/02/14 03:15 KBTP 140315Z AUTO 00000KT 7SM CLR M16/M18 A3042 RMK AO1
KIDI - Indiana/Stewart, Pennsylvania, USA
Distance from station: ENE 29mi, 47km
Updated: Sat, 13-Feb-2016 10:15pm EST
Overcast
Overcast
 Wind from WNW
Wind: WNW 8 mph , 13 km/h, Gust: 16 mph , 26 km/h
Temperature: 5°F , -15°C
Wind Chill: -8°F , -22°C
Dew Point: -2°F , -19°C
Humidity: 72%
Barometer: 30.39 inHg , 1029.1 hPa
Clouds: Overcast
Visibility: 10 miles , 16 km
Cloud details: Few Clouds 1700 ft
Partly cloudy 3400 ft
Overcast 4100 ft
2016/02/14 03:15 KIDI 140315Z AUTO 30007G14KT 260V320 10SM FEW017 SCT034 OVC041 M15/M19 A3039 RMK A01
 
KPIT - Pittsburgh, Pennsylvania, USA
Distance from station: W 36mi, 57km
Updated: Sat, 13-Feb-2016 10:29pm EST
Mostly cloudy
Mostly cloudy
 Wind from W
Wind: W 5 mph , 7 km/h
Temperature: 3°F , -16°C
Wind Chill: -7°F , -22°C
Dew Point: -2°F , -19°C
Humidity: 78%
Barometer: 30.40 inHg , 1029.5 hPa
Clouds: Mostly cloudy
Visibility: 10 miles , 16 km
Cloud details: Mostly cloudy 2700 ft
Mostly cloudy 3300 ft
2016/02/14 03:29 KPIT 140329Z 26004KT 10SM BKN027 BKN033 M16/M19 A3040 RMK AO2 T11611194
KJST - Johnstown, Pennsylvania, USA
Distance from station: ESE 41mi, 66km
Updated: Sat, 13-Feb-2016 10:16pm EST
Light snow, Overcast
Light snow, Overcast
 Wind from W
Wind: W 15 mph , 24 km/h
Temperature: 1°F , -17°C
Wind Chill: -18°F , -28°C
Dew Point: -6°F , -21°C
Humidity: 71%
Barometer: 30.23 inHg , 1023.7 hPa
Summary: Light Snow
Clouds: Overcast
Visibility: 4 miles , 6 km
Cloud details: Mostly cloudy 2100 ft
Overcast 4000 ft
2016/02/14 03:16 KJST 140316Z AUTO 28013KT 4SM -SN BKN021 OVC040 M17/M21 A3023 RMK AO2 SNB02 P0000 T11671211 $
 
KAFJ - Washington, Pennsylvania, USA
Distance from station: WSW 42mi, 68km
Updated: Sat, 13-Feb-2016 10:15pm EST
Clear
Clear
 Wind from WSW
Wind: WSW 3 mph , 6 km/h
Temperature: 1°F , -17°C
Dew Point: -6°F , -21°C
Humidity: 71%
Barometer: 30.40 inHg , 1029.5 hPa
Clouds: Clear
Visibility: 10 miles , 16 km
2016/02/14 03:15 KAFJ 140315Z AUTO 24003KT 10SM CLR M17/M21 A3040 RMK AO1
KBVI - Beaver Falls Arp, Pennsylvania, USA
Distance from station: WNW 48mi, 77km
Updated: Sat, 13-Feb-2016 3:47pm EST
NOT Current
Mostly cloudy
Mostly cloudy
 Wind from WNW
Wind: WNW 10 mph , 17 km/h, Gust: 18 mph , 30 km/h
Temperature: 10°F , -12°C
Wind Chill: -4°F , -20°C
Dew Point: -0°F , -18°C
Humidity: 61%
Barometer: 30.34 inHg , 1027.4 hPa
Clouds: Mostly cloudy
Visibility: 7 miles , 11 km
Cloud details: Partly cloudy 1000 ft
Partly cloudy 1400 ft
Mostly cloudy 3200 ft
2016/02/13 20:47 KBVI 132047Z 30009G16KT 7SM SCT010 SCT014 BKN032 M12/M18 A3034